Hayward, Missouri
Current Conditions -  °F | °C
As of 8:15 AM on Thursday 29 Jan 2015 (Local Time) from KDYR Reporting Station
Clear Clear  
Wind Chill: 57°   Ceiling: Unl
Heat Index: 57°   Visibility: 10mi
Dew Point: 36°   Wind: 18mph
Humidity: 44%   Direction: 230°SW
Pressure: 30.03"   Gusts: 26mph
Location:  36.4157°N, 89.6885°W
Report Text: KDYR 291415Z 23016G23KT 10SM CLR 14/02 A3003 RMK AO1
Loading
Personal Weather Stations






























Interactive Weather Map New forecast layout! Learn more

10-Day Weather Forecast

Advertisements
Track Severe Weather on mobile